Ride Results

Kentish Sheffield (11-05-2019)
Ride distance: 80.0 km

Outcomes - Kentish Sheffield (11-05-2019)
Division No. of Entries Retired / DNE Completed Withdrawn Ineligible V/O Percentage Completed
HW 3 - 2 1 - - 66.67%
MW 10 - 8 - - 2 80.00%
LW 10 - 8 - - 2 80.00%
JN 3 - 1 - - 2 33.33%
Totals 26 - 19 1 - 6 73.08%
Results - Kentish Sheffield (11-05-2019)
No. Rider Horse Place Time Leg Speeds Total
Km/Hr
H/R bpm
Heavyweight
158 Steve Wilson Echo Malua 1 (BC) 6:05:59 13.2, 12.9 13.12 38, 41, 49 (Avg:45)
G Greg Henry Bellawongarah Beau 2 7:52:31 10.7, 9.5 10.16 56, 52, 53 (Avg:52)
18 Sheleah Astell Samson of Glendhu W/D on track L2 0:00:00 - - 39, 47, 50 (Avg:48)
Middleweight
171 Craig Wall Undurra Braveheart 1 5:12:29 17.3, 13.7 15.36 38, 52, 55 (Avg:53)
136 Kaye Mitchell Beer Street Tarkine 2 5:42:37 15.2, 12.9 14.01 31, 48, 51 (Avg:49)
101 Wendy Rand Shayelle Georgia 2 (BC) 5:42:37 15.2, 12.9 14.01 32, 44, 50 (Avg:47)
29 Grace Huxtable Graceton TJ Eremo 4 6:02:25 13.2, 13.2 13.24 50, 50, 55 (Avg:52)
76 Karin Morris Follydown Mystify (au) 5 6:02:51 14.6, 12.0 13.23 33, 41, 50 (Avg:45)
300 Raelene Smith Splitters Creek Cypress 6 7:16:30 12.5, 9.7 11.00 32, 42, 48 (Avg:45)
180 Nicole Ford Highland View Piper 7 7:48:36 10.7, 9.7 10.24 44, 42, 48 (Avg:45)
218 Katrina Bock Valimar Arwen 8 7:51:50 10.8, 9.6 10.17 33, 44, 52 (Avg:48)
254 Deb Wyllie Kasdell Astar Lame L1 0:00:00 11.2 - 38, 45 (Avg:45)
323 Danielle Taylor Lauralyn Gangnam Lame P/R 0:00:00 - - 47
Lightweight
54 Brooke McKenna Miss Mika 1 (BC) 4:57:25 17.3, 15.0 16.14 36, 48, 53 (Avg:50)
150 Emily Shadbolt Pine Gully Jetfire 2 5:12:13 16.8, 14.1 15.37 42, 52, 52 (Avg:52)
305 Julie Carter Castlebar Dude 3 6:02:22 13.9, 12.6 13.25 30, 45, 54 (Avg:49)
203 Kelly Woodhouse Yondover Ridge Bee 4 6:16:26 14.2, 11.5 12.75 34, 50, 55 (Avg:52)
83 Angie Clark Castlebar Galahad 5 6:22:11 12.9, 12.2 12.56 35, 49, 59 (Avg:54)
308 Ella Carter Indi 6 7:22:14 10.7, 10.9 10.85 36, 48, 54 (Avg:51)
90 Angela Hawks Count Yianni 6 7:22:14 10.7, 10.9 10.85 36, 44, 54 (Avg:49)
100 Trish Smith Beaucheval Akhiran 8 7:23:06 11.3, 10.3 10.83 32, 46, 58 (Avg:52)
163 Lydia Rigby Z'lights Giselle Lame L2 0:00:00 11.3, 10.0 - 29, 38, 48 (Avg:43)
23 Tracey Nutting Acaciavej Shadowy Rose Lame L1 0:00:00 10.7 - 32, 46 (Avg:46)
Junior
306 Jessica Goulding Beer Street Riversong 1 (BC) 7:16:32 11.2, 10.7 11.00 38, 44, 53 (Avg:48)
237 Kiana Ford Amira Amani Lame L2 0:00:00 10.7, 9.7 - 50, 45, 47 (Avg:46)
284 Abbey Ayers Samosa Lame L1 0:00:00 14.6 - 37, 49 (Avg:49)